Time;durP1;ratioP1;P1;durP2;ratioP2;P2;SDS_P1;SDS_P2;PMS_P1;PMS_P2;Temp;Humidity;BMP_temperature;BMP_pressure;BME280_temperature;BME280_humidity;BME280_pressure;Samples;Min_cycle;Max_cycle;Signal;HPM_P1;HPM_P2
2023/01/25 00:01:16;;;;;;;7.68;4.13;;;;;;;-0.94;77.66;97747.47;5095133;28;20051;-63
2023/01/25 00:03:44;;;;;;;6.80;3.90;;;;;;;-0.88;78.15;97749.38;5095017;28;20417;-62
2023/01/25 00:06:13;;;;;;;6.03;3.85;;;;;;;-0.90;76.97;97746.75;5095205;28;20048;-62
2023/01/25 00:08:40;;;;;;;5.88;3.72;;;;;;;-0.91;76.77;97752.69;5095133;28;20134;-62
2023/01/25 00:11:08;;;;;;;7.88;3.63;;;;;;;-0.94;76.63;97745.78;5094955;28;20052;-64
2023/01/25 00:13:35;;;;;;;4.88;3.85;;;;;;;-0.98;76.88;97745.66;5094780;28;20058;-63
2023/01/25 00:16:03;;;;;;;7.95;3.78;;;;;;;-0.99;77.24;97743.91;5094802;28;20127;-63
2023/01/25 00:18:31;;;;;;;5.65;3.60;;;;;;;-0.99;76.86;97743.91;5094823;28;20101;-61
2023/01/25 00:20:58;;;;;;;4.82;3.50;;;;;;;-1.03;76.65;97740.38;5094817;28;20052;-63
2023/01/25 00:23:26;;;;;;;4.70;3.38;;;;;;;-1.04;77.11;97738.66;5094691;28;21114;-62
2023/01/25 00:25:57;;;;;;;4.43;3.35;;;;;;;-1.02;76.85;97743.00;5094746;28;20040;-63
2023/01/25 00:28:25;;;;;;;4.75;3.50;;;;;;;-0.98;76.47;97737.94;5094467;28;20101;-65
2023/01/25 00:30:52;;;;;;;5.13;3.65;;;;;;;-1.03;76.04;97733.56;5094671;28;20051;-64
2023/01/25 00:33:44;;;;;;;6.47;3.47;;;;;;;-1.06;76.73;97724.88;5094403;28;20051;-63
2023/01/25 00:36:39;;;;;;;5.40;3.47;;;;;;;-1.09;76.00;97725.69;5094440;28;20390;-62
2023/01/25 00:39:12;;;;;;;5.78;3.45;;;;;;;-1.12;76.07;97724.75;5094734;28;20056;-62
2023/01/25 00:41:40;;;;;;;5.13;3.28;;;;;;;-1.20;76.32;97729.66;5094373;28;20130;-64
2023/01/25 00:44:08;;;;;;;3.78;3.17;;;;;;;-1.19;76.28;97733.97;5094627;28;20083;-64
2023/01/25 00:46:35;;;;;;;6.68;3.63;;;;;;;-1.21;76.47;97728.78;5094227;28;20044;-62
2023/01/25 00:49:03;;;;;;;3.65;2.92;;;;;;;-1.15;76.91;97728.97;5094399;28;20405;-63
2023/01/25 00:51:30;;;;;;;5.60;3.70;;;;;;;-1.16;76.74;97731.47;5094127;28;20130;-62
2023/01/25 00:53:58;;;;;;;6.32;3.80;;;;;;;-1.12;76.44;97737.59;5094307;28;20059;-65
2023/01/25 00:56:27;;;;;;;6.07;3.83;;;;;;;-1.13;76.08;97730.69;5094160;28;20093;-63
2023/01/25 00:58:54;;;;;;;5.05;3.83;;;;;;;-1.15;76.40;97723.81;5093977;28;20044;-64
2023/01/25 01:01:22;;;;;;;4.57;3.40;;;;;;;-1.20;76.10;97720.25;5093964;28;20097;-62
2023/01/25 01:03:51;;;;;;;5.72;3.67;;;;;;;-1.10;76.33;97723.94;5094036;28;20052;-61
2023/01/25 01:06:19;;;;;;;6.03;4.10;;;;;;;-1.10;76.60;97723.06;5094047;28;20048;-64
2023/01/25 01:08:46;;;;;;;5.93;3.78;;;;;;;-1.10;75.50;97718.81;5093886;28;20040;-65
2023/01/25 01:11:13;;;;;;;5.38;3.20;;;;;;;-1.14;75.36;97714.44;5093739;28;20051;-65
2023/01/25 01:13:43;;;;;;;5.47;3.70;;;;;;;-1.20;76.48;97712.53;5093655;28;20048;-63
2023/01/25 01:16:12;;;;;;;5.95;3.83;;;;;;;-1.15;75.98;97703.28;5093734;28;20555;-61
2023/01/25 01:18:42;;;;;;;5.72;3.70;;;;;;;-1.18;75.99;97707.44;5093938;28;20052;-62
2023/01/25 01:21:10;;;;;;;6.63;3.50;;;;;;;-1.14;76.17;97711.84;5093796;28;20436;-65
2023/01/25 01:23:38;;;;;;;4.72;3.53;;;;;;;-1.12;75.17;97712.75;5093651;28;20040;-64
2023/01/25 01:26:08;;;;;;;8.00;3.25;;;;;;;-1.07;75.76;97716.31;5093694;28;20047;-62
2023/01/25 01:28:38;;;;;;;5.03;3.00;;;;;;;-1.07;75.12;97710.31;5093556;28;20059;-64
2023/01/25 01:31:08;;;;;;;6.05;3.85;;;;;;;-1.11;74.59;97701.66;5093740;28;20044;-64
2023/01/25 01:33:36;;;;;;;5.72;3.95;;;;;;;-1.07;75.79;97715.44;5093635;28;20051;-62
2023/01/25 01:36:07;;;;;;;6.57;3.70;;;;;;;-1.08;75.34;97716.28;5093701;28;20416;-61
2023/01/25 01:38:34;;;;;;;5.95;3.60;;;;;;;-1.04;75.21;97713.84;5093479;28;20074;-64
2023/01/25 01:41:02;;;;;;;6.03;3.28;;;;;;;-1.05;75.14;97717.22;5092822;28;20045;-62
2023/01/25 01:43:30;;;;;;;7.00;3.88;;;;;;;-1.05;75.35;97719.78;5093350;28;20052;-62
2023/01/25 01:46:01;;;;;;;7.05;3.70;;;;;;;-1.05;75.56;97716.38;5093201;28;20048;-63
2023/01/25 01:48:36;;;;;;;5.28;3.47;;;;;;;-1.07;74.77;97716.31;5093086;28;20513;-64
2023/01/25 01:51:12;;;;;;;4.50;3.35;;;;;;;-1.10;74.55;97710.22;5093245;28;20425;-65
2023/01/25 01:53:43;;;;;;;7.70;4.00;;;;;;;-1.16;74.77;97711.81;5093537;28;20044;-65
2023/01/25 01:56:17;;;;;;;5.35;3.83;;;;;;;-1.15;75.02;97713.53;5093395;28;20044;-62
2023/01/25 01:58:46;;;;;;;6.95;4.03;;;;;;;-1.19;75.56;97704.03;5093197;28;20062;-62
2023/01/25 02:01:13;;;;;;;6.50;3.58;;;;;;;-1.19;74.94;97709.16;5093258;28;20539;-63
2023/01/25 02:03:42;;;;;;;6.03;3.80;;;;;;;-1.20;75.24;97715.09;5093206;28;20044;-63
2023/01/25 02:06:15;;;;;;;4.07;3.42;;;;;;;-1.19;75.40;97709.16;5093147;28;20044;-63
2023/01/25 02:08:42;;;;;;;8.82;3.45;;;;;;;-1.25;75.32;97705.53;5093223;28;20044;-64
2023/01/25 02:11:12;;;;;;;5.47;3.60;;;;;;;-1.27;75.40;97713.19;5093284;28;20413;-64
2023/01/25 02:13:39;;;;;;;6.10;4.07;;;;;;;-1.24;75.46;97702.16;5092970;28;20058;-65
2023/01/25 02:16:14;;;;;;;6.18;3.88;;;;;;;-1.30;75.28;97701.16;5093026;28;20048;-62
2023/01/25 02:18:42;;;;;;;7.25;4.60;;;;;;;-1.25;75.78;97703.84;5092948;28;20048;-65
2023/01/25 02:21:11;;;;;;;4.53;3.60;;;;;;;-1.29;75.83;97702.88;5092957;28;20379;-62
2023/01/25 02:23:47;;;;;;;7.20;4.40;;;;;;;-1.32;75.50;97705.34;5093009;28;20044;-63
2023/01/25 02:26:19;;;;;;;6.85;4.05;;;;;;;-1.28;75.61;97702.06;5092998;28;20048;-65
2023/01/25 02:28:50;;;;;;;8.55;4.18;;;;;;;-1.22;76.41;97703.06;5093018;28;20056;-63
2023/01/25 02:31:18;;;;;;;4.32;3.10;;;;;;;-1.24;76.06;97702.16;5092828;28;20109;-63
2023/01/25 02:33:45;;;;;;;5.47;3.70;;;;;;;-1.26;75.08;97707.25;5092820;28;20048;-65
2023/01/25 02:36:20;;;;;;;5.85;4.18;;;;;;;-1.24;75.69;97699.59;5092924;28;20048;-62
2023/01/25 02:38:52;;;;;;;5.60;3.80;;;;;;;-1.20;75.34;97702.25;5093107;28;20055;-64
2023/01/25 02:41:28;;;;;;;5.68;3.40;;;;;;;-1.24;75.62;97690.16;5092866;28;20082;-64
2023/01/25 02:43:55;;;;;;;6.53;4.72;;;;;;;-1.23;75.32;97697.06;5092704;28;20497;-64
2023/01/25 02:46:26;;;;;;;5.50;3.70;;;;;;;-1.20;75.50;97693.72;5092916;28;20048;-62
2023/01/25 02:48:54;;;;;;;4.72;3.42;;;;;;;-1.27;75.37;97698.66;5092906;28;20052;-64
2023/01/25 02:51:23;;;;;;;8.40;4.28;;;;;;;-1.24;75.40;97694.47;5093399;28;20448;-63
2023/01/25 02:53:51;;;;;;;5.13;3.10;;;;;;;-1.21;75.59;97697.97;5096375;28;20054;-63
2023/01/25 02:56:18;;;;;;;8.02;4.03;;;;;;;-1.23;75.26;97702.22;5096461;28;20052;-65
2023/01/25 02:58:47;;;;;;;6.63;3.67;;;;;;;-1.18;74.64;97699.72;5096532;28;20060;-64
2023/01/25 03:01:14;;;;;;;5.20;3.22;;;;;;;-1.22;74.74;97701.38;5096375;28;20055;-62
2023/01/25 03:03:42;;;;;;;5.03;3.47;;;;;;;-1.20;74.83;97704.81;5096297;28;20087;-63
2023/01/25 03:06:09;;;;;;;4.38;3.17;;;;;;;-1.22;74.82;97700.47;5096222;28;20040;-64
2023/01/25 03:08:37;;;;;;;5.75;3.42;;;;;;;-1.21;74.88;97702.25;5096517;28;20074;-64
2023/01/25 03:11:06;;;;;;;6.22;3.40;;;;;;;-1.23;74.78;97706.47;5096170;28;20097;-62
2023/01/25 03:13:34;;;;;;;5.18;3.45;;;;;;;-1.25;75.32;97698.72;5095995;28;20044;-65
2023/01/25 03:16:05;;;;;;;4.72;3.55;;;;;;;-1.29;75.08;97697.75;5096092;28;20052;-62
2023/01/25 03:18:33;;;;;;;5.47;3.92;;;;;;;-1.34;74.95;97709.59;5096080;28;20044;-62
2023/01/25 03:21:05;;;;;;;4.72;3.28;;;;;;;-1.28;75.26;97699.50;5095929;28;20101;-61
2023/01/25 03:23:33;;;;;;;4.80;3.40;;;;;;;-1.28;74.41;97694.38;5095918;28;20051;-62
2023/01/25 03:26:09;;;;;;;5.25;3.70;;;;;;;-1.32;75.23;97695.09;5095799;28;20055;-63
2023/01/25 03:28:38;;;;;;;5.97;3.90;;;;;;;-1.35;74.73;97689.91;5095807;28;20044;-63
2023/01/25 03:31:07;;;;;;;5.28;3.63;;;;;;;-1.34;74.97;97698.44;5095727;28;20048;-64
2023/01/25 03:33:35;;;;;;;7.15;3.33;;;;;;;-1.52;75.04;97671.44;5095747;28;20048;-64
2023/01/25 03:36:03;;;;;;;5.70;3.72;;;;;;;-1.39;75.52;97695.75;5095726;28;20083;-64
2023/01/25 03:38:31;;;;;;;6.35;4.28;;;;;;;-1.47;75.26;97700.69;5095611;28;20048;-62
2023/01/25 03:40:58;;;;;;;6.25;4.28;;;;;;;-1.42;75.11;97709.38;5095611;28;20051;-62
2023/01/25 03:43:25;;;;;;;6.93;3.72;;;;;;;-1.42;75.65;97695.66;5095541;28;20044;-66
2023/01/25 03:45:54;;;;;;;6.63;4.10;;;;;;;-1.45;75.60;97703.28;5095602;28;20123;-63
2023/01/25 03:48:23;;;;;;;6.55;3.75;;;;;;;-1.43;75.79;97697.38;5095588;28;20097;-64
2023/01/25 03:50:51;;;;;;;5.43;3.57;;;;;;;-1.51;74.98;97693.69;5095530;28;20044;-63
2023/01/25 03:53:29;;;;;;;5.25;3.70;;;;;;;-1.53;75.38;97701.34;5095620;28;20615;-63
2023/01/25 03:55:59;;;;;;;7.35;3.53;;;;;;;-1.60;75.33;97702.00;5095323;28;20067;-62
2023/01/25 03:58:26;;;;;;;5.63;3.70;;;;;;;-1.56;75.36;97690.16;5095586;28;20116;-63
2023/01/25 04:00:56;;;;;;;4.53;3.38;;;;;;;-1.62;75.56;97695.09;5095194;28;20048;-62
2023/01/25 04:03:25;;;;;;;7.22;3.35;;;;;;;-1.67;75.15;97693.28;5094601;28;20105;-65
2023/01/25 04:05:54;;;;;;;4.38;3.22;;;;;;;-1.70;75.51;97688.06;5095364;28;20440;-63
2023/01/25 04:08:22;;;;;;;4.85;3.33;;;;;;;-1.62;75.31;97701.13;5095101;28;20044;-62
2023/01/25 04:10:53;;;;;;;6.40;3.28;;;;;;;-1.62;75.30;97697.66;5095013;28;20040;-65
2023/01/25 04:13:20;;;;;;;4.93;2.92;;;;;;;-1.72;75.36;97694.81;5094904;28;20040;-63
2023/01/25 04:15:48;;;;;;;4.25;3.00;;;;;;;-1.63;75.53;97703.63;5094952;28;20055;-62
2023/01/25 04:18:16;;;;;;;3.58;2.67;;;;;;;-1.61;75.54;97700.28;5094843;28;20047;-63
2023/01/25 04:20:46;;;;;;;3.97;2.60;;;;;;;-1.69;75.31;97697.47;5094866;28;20073;-61
2023/01/25 04:23:13;;;;;;;5.63;3.28;;;;;;;-1.67;75.18;97694.97;5094869;28;20054;-64
2023/01/25 04:25:41;;;;;;;5.13;3.17;;;;;;;-1.69;75.64;97705.19;5094669;28;20093;-65
2023/01/25 04:28:08;;;;;;;6.20;3.33;;;;;;;-1.70;75.45;97705.13;5094696;28;20048;-63
2023/01/25 04:30:36;;;;;;;7.85;4.70;;;;;;;-1.66;75.37;97706.97;5094723;28;20063;-61
2023/01/25 04:33:04;;;;;;;4.75;2.65;;;;;;;-1.60;75.31;97703.72;5094498;28;20069;-62
2023/01/25 04:35:31;;;;;;;4.50;2.90;;;;;;;-1.58;74.96;97709.75;5094495;28;20071;-62
2023/01/25 04:38:00;;;;;;;3.88;2.95;;;;;;;-1.63;74.97;97694.22;5094678;28;20502;-63
2023/01/25 04:40:29;;;;;;;3.55;2.50;;;;;;;-1.57;74.79;97716.63;5094413;28;20048;-63
2023/01/25 04:42:56;;;;;;;4.30;2.88;;;;;;;-1.58;74.72;97713.22;5094519;28;20050;-63
2023/01/25 04:45:23;;;;;;;3.75;2.70;;;;;;;-1.55;74.55;97707.28;5094324;28;20066;-63
2023/01/25 04:47:56;;;;;;;5.47;2.92;;;;;;;-1.55;74.82;97712.41;5094258;28;20047;-62
2023/01/25 04:50:23;;;;;;;4.80;2.80;;;;;;;-1.53;74.37;97714.19;5094265;28;20121;-61
2023/01/25 04:52:50;;;;;;;4.75;2.53;;;;;;;-1.49;74.88;97711.72;5094262;28;20048;-62
2023/01/25 04:55:19;;;;;;;9.15;3.22;;;;;;;-1.43;74.63;97707.66;5094170;28;20048;-66
2023/01/25 04:57:48;;;;;;;5.03;3.13;;;;;;;-1.37;73.73;97700.94;5094011;28;20044;-62
2023/01/25 05:00:17;;;;;;;4.37;2.83;;;;;;;-1.41;73.95;97712.81;5094158;28;20105;-62
2023/01/25 05:02:44;;;;;;;5.38;3.05;;;;;;;-1.45;73.56;97706.72;5093920;28;20812;-64
2023/01/25 05:05:12;;;;;;;4.90;2.92;;;;;;;-1.45;74.06;97705.84;5094061;28;20379;-62
2023/01/25 05:07:40;;;;;;;4.50;3.17;;;;;;;-1.40;73.86;97702.59;5094119;28;20048;-64
2023/01/25 05:10:09;;;;;;;3.80;3.00;;;;;;;-1.37;73.65;97699.25;5093788;28;20044;-64
2023/01/25 05:12:38;;;;;;;6.57;2.78;;;;;;;-1.47;73.28;97697.25;5093845;28;20132;-65
2023/01/25 05:15:07;;;;;;;4.70;2.95;;;;;;;-1.41;73.07;97705.13;5092777;28;20044;-63
2023/01/25 05:17:36;;;;;;;4.03;2.78;;;;;;;-1.42;72.40;97704.25;5093835;28;20055;-61
2023/01/25 05:20:04;;;;;;;7.38;2.67;;;;;;;-1.49;72.91;97704.91;5093746;28;20121;-62
2023/01/25 05:22:31;;;;;;;3.97;2.80;;;;;;;-1.44;73.21;97710.16;5093826;28;20464;-64
2023/01/25 05:25:00;;;;;;;5.20;2.70;;;;;;;-1.48;72.21;97710.91;5093992;28;20048;-65
2023/01/25 05:27:26;;;;;;;3.90;2.63;;;;;;;-1.49;72.23;97709.16;5093584;28;20441;-65
2023/01/25 05:29:56;;;;;;;3.20;2.60;;;;;;;-1.54;72.67;97709.00;5093638;28;20131;-62
2023/01/25 05:32:24;;;;;;;3.43;2.30;;;;;;;-1.57;73.58;97707.25;5093492;28;20059;-63
2023/01/25 05:34:52;;;;;;;5.38;2.78;;;;;;;-1.56;73.59;97705.56;5093464;28;20063;-63
2023/01/25 05:37:21;;;;;;;4.38;3.08;;;;;;;-1.55;73.19;97715.00;5093528;28;20076;-62
2023/01/25 05:39:48;;;;;;;5.40;2.63;;;;;;;-1.52;73.50;97712.50;5093376;28;20075;-64
2023/01/25 05:42:18;;;;;;;4.20;2.60;;;;;;;-1.45;72.67;97724.69;5093404;28;20047;-63
2023/01/25 05:44:45;;;;;;;4.57;2.95;;;;;;;-1.45;72.37;97727.25;5093424;28;20048;-63
2023/01/25 05:47:15;;;;;;;5.25;3.25;;;;;;;-1.48;73.23;97716.91;5092997;28;20059;-63
2023/01/25 05:49:43;;;;;;;5.93;2.83;;;;;;;-1.47;72.92;97718.66;5093673;28;20054;-64
2023/01/25 05:52:13;;;;;;;8.85;3.55;;;;;;;-1.46;72.87;97725.53;5093290;28;20413;-63
2023/01/25 05:54:45;;;;;;;;;;;;;;;-1.40;73.33;97723.13;5093547;28;20059;-65
2023/01/25 05:57:15;;;;;;;5.47;3.25;;;;;;;-1.44;72.69;97720.44;5093150;28;19920;-63
2023/01/25 05:59:49;;;;;;;4.38;3.05;;;;;;;-1.45;73.45;97721.25;5093293;28;20052;-64
2023/01/25 06:02:19;;;;;;;4.43;3.03;;;;;;;-1.48;73.72;97714.34;5093143;28;20051;-62
2023/01/25 06:04:46;;;;;;;4.20;2.50;;;;;;;-1.43;73.14;97725.63;5093183;28;20044;-64
2023/01/25 06:07:17;;;;;;;5.88;2.83;;;;;;;-1.44;73.12;97725.56;5093143;28;20281;-62
2023/01/25 06:09:44;;;;;;;3.25;2.70;;;;;;;-1.39;73.07;97721.44;5093010;28;20135;-64
2023/01/25 06:12:12;;;;;;;4.47;3.05;;;;;;;-1.42;73.36;97719.66;5093221;28;20101;-62
2023/01/25 06:14:40;;;;;;;3.83;2.92;;;;;;;-1.43;73.54;97720.47;5093229;28;20056;-62
2023/01/25 06:17:08;;;;;;;6.10;3.20;;;;;;;-1.42;73.67;97737.63;5093177;28;20048;-64
2023/01/25 06:19:38;;;;;;;6.45;3.45;;;;;;;-1.36;73.69;97733.50;5093099;28;20401;-64
2023/01/25 06:22:07;;;;;;;5.45;3.33;;;;;;;-1.38;73.79;97738.59;5093170;28;20578;-62
2023/01/25 06:24:35;;;;;;;4.57;3.70;;;;;;;-1.48;73.52;97736.59;5093126;28;20117;-62
2023/01/25 06:27:02;;;;;;;5.53;2.83;;;;;;;-1.50;73.53;97730.53;5094712;28;20055;-65
2023/01/25 06:29:33;;;;;;;5.35;2.72;;;;;;;-1.39;73.39;97744.53;5096961;28;20056;-62
2023/01/25 06:32:00;;;;;;;4.57;2.97;;;;;;;-1.35;73.20;97743.81;5096835;28;20058;-62
2023/01/25 06:34:28;;;;;;;4.82;2.50;;;;;;;-1.42;73.29;97747.88;5096817;28;20127;-64
2023/01/25 06:36:56;;;;;;;5.10;3.28;;;;;;;-1.40;73.36;97750.50;5096844;28;20040;-64
2023/01/25 06:39:24;;;;;;;5.07;3.20;;;;;;;-1.40;73.70;97742.81;5097125;28;20249;-65
2023/01/25 06:41:51;;;;;;;4.72;3.22;;;;;;;-1.44;73.93;97751.25;5096813;28;20048;-64
2023/01/25 06:44:19;;;;;;;5.00;3.40;;;;;;;-1.43;74.14;97745.28;5096604;28;20079;-63
2023/01/25 06:46:47;;;;;;;4.88;3.13;;;;;;;-1.36;73.74;97744.63;5096360;28;20109;-61
2023/01/25 06:49:14;;;;;;;8.15;3.30;;;;;;;-1.31;73.92;97740.50;5096551;28;20055;-63
2023/01/25 06:51:42;;;;;;;5.55;3.35;;;;;;;-1.33;73.35;97742.16;5096621;28;20040;-65
2023/01/25 06:54:10;;;;;;;5.03;2.83;;;;;;;-1.33;73.06;97736.16;5096478;28;20048;-63
2023/01/25 06:56:37;;;;;;;4.40;2.67;;;;;;;-1.36;73.39;97736.91;5096621;28;20052;-66
2023/01/25 06:59:05;;;;;;;5.75;3.25;;;;;;;-1.42;73.15;97744.44;5096425;28;20050;-62
2023/01/25 07:01:32;;;;;;;5.43;3.10;;;;;;;-1.36;72.69;97744.63;5096600;28;20044;-64
2023/01/25 07:04:00;;;;;;;5.60;3.00;;;;;;;-1.34;73.19;97745.56;5096213;28;20121;-65
2023/01/25 07:06:37;;;;;;;3.95;3.15;;;;;;;-1.36;72.79;97739.50;5096294;28;20524;-62
2023/01/25 07:09:07;;;;;;;3.60;2.72;;;;;;;-1.33;71.79;97729.31;5096249;28;20048;-65
2023/01/25 07:11:39;;;;;;;4.40;2.63;;;;;;;-1.30;72.14;97731.09;5096339;28;20052;-63
2023/01/25 07:14:07;;;;;;;3.72;2.53;;;;;;;-1.25;71.33;97739.81;5096056;28;20080;-64
2023/01/25 07:16:37;;;;;;;5.00;3.03;;;;;;;-1.27;71.31;97741.44;5096176;28;20094;-63
2023/01/25 07:19:05;;;;;;;3.30;2.40;;;;;;;-1.28;70.78;97745.72;5096174;28;20048;-63
2023/01/25 07:21:32;;;;;;;4.05;2.53;;;;;;;-1.25;70.33;97737.22;5096249;28;20044;-63
2023/01/25 07:24:02;;;;;;;4.28;3.17;;;;;;;-1.24;69.77;97741.53;5095860;28;20048;-63
2023/01/25 07:26:30;;;;;;;3.10;2.33;;;;;;;-1.19;69.87;97734.84;5095962;28;20106;-65
2023/01/25 07:28:59;;;;;;;3.40;2.20;;;;;;;-1.17;70.41;97735.75;5095910;28;20457;-65
2023/01/25 07:31:27;;;;;;;4.17;2.60;;;;;;;-1.10;69.88;97731.66;5095888;28;20052;-65
2023/01/25 07:33:56;;;;;;;5.75;2.53;;;;;;;-1.05;69.64;97736.94;5095778;28;20284;-66
2023/01/25 07:36:24;;;;;;;4.07;2.45;;;;;;;-1.10;68.99;97738.47;5095214;28;20459;-66
2023/01/25 07:38:53;;;;;;;4.22;2.53;;;;;;;-0.98;69.33;97743.09;5094727;28;20047;-63
2023/01/25 07:41:23;;;;;;;5.10;2.55;;;;;;;-0.96;68.66;97732.00;5095538;28;20048;-62
2023/01/25 07:43:51;;;;;;;2.42;2.05;;;;;;;-0.98;69.03;97735.38;5095588;28;20490;-65
2023/01/25 07:46:22;;;;;;;3.08;2.25;;;;;;;-0.93;69.57;97741.53;5095304;28;20048;-64
2023/01/25 07:48:53;;;;;;;4.07;2.40;;;;;;;-0.92;67.72;97738.13;5095494;28;20058;-62
2023/01/25 07:51:23;;;;;;;3.22;2.33;;;;;;;-0.93;68.68;97744.09;5095487;28;20093;-65
2023/01/25 07:53:53;;;;;;;2.55;2.00;;;;;;;-0.95;68.01;97735.47;5095242;28;20052;-63
2023/01/25 07:56:22;;;;;;;6.07;2.85;;;;;;;-0.95;68.18;97736.34;5095333;28;20059;-61
2023/01/25 07:58:50;;;;;;;4.55;2.67;;;;;;;-0.94;68.61;97738.06;5095273;28;20048;-64
2023/01/25 08:01:21;;;;;;;3.17;2.40;;;;;;;-0.87;68.47;97731.41;5095240;28;20102;-62
2023/01/25 08:03:50;;;;;;;5.78;2.60;;;;;;;-0.79;68.85;97736.72;5095321;28;20512;-65
2023/01/25 08:06:26;;;;;;;5.32;2.10;;;;;;;-0.79;68.07;97749.59;5095393;28;20123;-65
2023/01/25 08:08:57;;;;;;;3.20;2.45;;;;;;;-0.88;67.98;97739.09;5094980;28;20048;-65
2023/01/25 08:11:34;;;;;;;4.03;2.63;;;;;;;-0.83;69.02;97738.38;5095074;28;20054;-62
2023/01/25 08:14:04;;;;;;;5.30;3.33;;;;;;;-0.84;68.21;97753.75;5095071;28;20052;-65
2023/01/25 08:16:36;;;;;;;3.30;2.60;;;;;;;-0.86;68.21;97760.53;5094466;28;20474;-62
2023/01/25 08:19:04;;;;;;;4.28;2.53;;;;;;;-0.85;68.42;97758.00;5095002;28;20285;-61
2023/01/25 08:21:33;;;;;;;5.47;2.85;;;;;;;-0.82;69.17;97758.09;5094752;28;20052;-65
2023/01/25 08:24:02;;;;;;;3.72;2.55;;;;;;;-0.74;68.89;97758.31;5094836;28;20048;-65
2023/01/25 08:26:31;;;;;;;3.05;2.70;;;;;;;-0.67;68.35;97756.75;5094775;28;20044;-61
2023/01/25 08:28:58;;;;;;;5.47;3.25;;;;;;;-0.74;68.81;97760.88;5094703;28;20486;-63
2023/01/25 08:31:29;;;;;;;4.38;2.90;;;;;;;-0.80;69.74;97760.69;5094607;28;20127;-62
2023/01/25 08:33:59;;;;;;;3.35;2.65;;;;;;;-0.81;68.87;97754.69;5094330;28;20123;-61
2023/01/25 08:36:28;;;;;;;4.53;3.00;;;;;;;-0.76;69.29;97752.25;5094569;28;20055;-63
2023/01/25 08:39:00;;;;;;;4.30;2.95;;;;;;;-0.73;69.48;97764.31;5094651;28;20277;-65
2023/01/25 08:41:29;;;;;;;4.28;2.75;;;;;;;-0.69;69.84;97756.72;5094572;28;20122;-65
2023/01/25 08:43:57;;;;;;;3.90;2.80;;;;;;;-0.70;69.61;97762.69;5094301;28;20067;-62
2023/01/25 08:46:26;;;;;;;3.30;2.42;;;;;;;-0.66;70.45;97755.94;5094154;28;20048;-65
2023/01/25 08:48:54;;;;;;;4.82;3.08;;;;;;;-0.58;70.55;97756.13;5094430;28;20044;-65
2023/01/25 08:51:24;;;;;;;5.30;3.70;;;;;;;-0.53;70.35;97754.53;5094368;28;20048;-62
2023/01/25 08:53:52;;;;;;;8.68;3.17;;;;;;;-0.57;69.42;97756.16;5094334;28;20044;-62
2023/01/25 08:56:20;;;;;;;3.13;2.58;;;;;;;-0.62;69.62;97760.31;5094148;28;20059;-62
2023/01/25 08:58:52;;;;;;;4.28;3.05;;;;;;;-0.55;69.06;97753.63;5094072;28;20090;-65
2023/01/25 09:01:24;;;;;;;5.25;3.40;;;;;;;-0.50;69.49;97754.63;5093968;28;20112;-65
2023/01/25 09:03:54;;;;;;;5.53;2.70;;;;;;;-0.51;68.80;97755.47;5094181;28;20048;-65
2023/01/25 09:06:22;;;;;;;4.32;2.65;;;;;;;-0.52;67.53;97744.31;5094065;28;20051;-63
2023/01/25 09:08:52;;;;;;;3.40;2.55;;;;;;;-0.51;68.51;97745.19;5094030;28;20059;-64
2023/01/25 09:11:25;;;;;;;3.97;2.70;;;;;;;-0.50;68.39;97746.91;5093892;28;20415;-64
2023/01/25 09:13:53;;;;;;;3.80;2.25;;;;;;;-0.40;68.92;97740.28;5094173;28;20477;-65
2023/01/25 09:16:27;;;;;;;5.30;2.78;;;;;;;-0.44;66.95;97726.50;5093725;28;20081;-62
2023/01/25 09:18:55;;;;;;;3.05;2.28;;;;;;;-0.31;66.75;97732.81;5093824;28;20048;-62
2023/01/25 09:21:25;;;;;;;2.97;2.10;;;;;;;-0.34;66.10;97734.41;5093897;28;20455;-64
2023/01/25 09:23:59;;;;;;;5.23;3.30;;;;;;;-0.32;66.18;97743.06;5093825;28;20109;-64
2023/01/25 09:26:29;;;;;;;4.05;2.50;;;;;;;-0.27;66.13;97729.47;5093736;28;20289;-63
2023/01/25 09:28:56;;;;;;;3.60;2.28;;;;;;;-0.30;65.87;97716.53;5093763;28;20047;-64
2023/01/25 09:31:28;;;;;;;3.42;2.80;;;;;;;-0.32;66.03;97707.94;5093824;28;20044;-65
2023/01/25 09:33:56;;;;;;;4.03;2.15;;;;;;;-0.28;65.58;97711.44;5093622;28;20071;-65
2023/01/25 09:36:25;;;;;;;2.78;2.35;;;;;;;-0.33;67.11;97708.75;5093600;28;20044;-65
2023/01/25 09:38:56;;;;;;;3.72;2.22;;;;;;;-0.19;66.05;97716.81;5093578;28;20055;-62
2023/01/25 09:41:48;;;;;;;4.97;2.97;;;;;;;-0.12;65.16;97717.81;5093547;28;20121;-63
2023/01/25 09:44:32;;;;;;;2.83;2.28;;;;;;;-0.20;64.79;97701.31;5093503;28;20405;-65
2023/01/25 09:47:04;;;;;;;3.42;2.13;;;;;;;-0.27;65.08;97680.59;5093080;28;20056;-63
2023/01/25 09:50:00;;;;;;;2.83;2.10;;;;;;;-0.23;64.81;97678.09;5093323;28;20086;-65
2023/01/25 09:52:52;;;;;;;2.70;1.80;;;;;;;-0.19;64.28;97691.06;5093456;28;20048;-63
2023/01/25 09:55:24;;;;;;;3.08;2.10;;;;;;;-0.17;65.37;97679.13;5093073;28;20055;-63
2023/01/25 09:57:55;;;;;;;3.58;2.40;;;;;;;-0.06;65.98;97666.50;5093324;28;20052;-63
2023/01/25 10:00:28;;;;;;;3.55;2.63;;;;;;;0.09;66.57;97671.09;5093118;28;20044;-63
2023/01/25 10:03:02;;;;;;;4.47;3.03;;;;;;;0.23;66.80;97655.09;5092874;28;20082;-64
2023/01/25 10:05:36;;;;;;;3.45;2.50;;;;;;;0.26;64.07;97662.88;5093167;28;20139;-63
2023/01/25 10:08:13;;;;;;;3.58;2.53;;;;;;;0.29;64.68;97649.19;5093186;28;20048;-63
2023/01/25 10:10:43;;;;;;;3.30;2.03;;;;;;;0.29;63.96;97637.22;5093046;28;20131;-64
2023/01/25 10:13:13;;;;;;;3.28;1.90;;;;;;;0.30;63.63;97645.81;5093237;28;20048;-65
2023/01/25 10:15:44;;;;;;;2.40;1.93;;;;;;;0.17;62.94;97642.97;5093149;28;20056;-63
2023/01/25 10:18:21;;;;;;;3.95;2.30;;;;;;;0.06;64.03;97644.44;5093033;28;20044;-62
2023/01/25 10:20:53;;;;;;;2.80;2.20;;;;;;;0.06;63.50;97644.44;5093098;28;20136;-65
2023/01/25 10:23:46;;;;;;;2.72;2.17;;;;;;;0.15;64.29;97644.63;5092913;28;20547;-64
2023/01/25 10:26:25;;;;;;;3.65;2.75;;;;;;;0.07;64.73;97644.50;5092940;28;20048;-62
2023/01/25 10:29:01;;;;;;;5.35;2.45;;;;;;;0.10;63.58;97635.97;5092979;28;20052;-63
2023/01/25 10:31:43;;;;;;;4.80;2.70;;;;;;;0.13;63.12;97618.00;5092998;28;20044;-61
2023/01/25 10:34:19;;;;;;;2.85;2.30;;;;;;;0.22;65.09;97625.06;5092813;28;20048;-64
2023/01/25 10:36:54;;;;;;;3.20;2.05;;;;;;;0.32;63.67;97613.22;5092715;28;20052;-64
2023/01/25 10:39:32;;;;;;;2.33;2.10;;;;;;;0.22;62.37;97613.06;5092896;28;20048;-61
2023/01/25 10:42:09;;;;;;;3.45;1.80;;;;;;;0.19;62.10;97607.84;5092868;28;20109;-62
2023/01/25 10:44:42;;;;;;;3.10;1.60;;;;;;;0.06;62.30;97604.13;5092761;28;20056;-62
2023/01/25 10:47:20;;;;;;;4.30;2.22;;;;;;;0.01;63.68;97600.59;5092206;28;20076;-62
2023/01/25 10:49:54;;;;;;;2.17;1.77;;;;;;;0.09;63.78;97596.47;5092762;28;20130;-61
2023/01/25 10:52:28;;;;;;;2.55;1.85;;;;;;;0.17;63.49;97593.19;5092736;28;20051;-62
2023/01/25 10:55:21;;;;;;;2.85;2.00;;;;;;;0.25;62.33;97597.66;5092718;28;20051;-63
2023/01/25 10:57:57;;;;;;;2.90;2.15;;;;;;;0.17;62.98;97591.50;5092680;28;20048;-63
2023/01/25 11:00:28;;;;;;;2.10;1.90;;;;;;;0.10;62.52;97589.63;5092874;28;20138;-62
2023/01/25 11:03:00;;;;;;;2.92;2.30;;;;;;;0.08;63.06;97583.56;5092615;28;20054;-63
2023/01/25 11:05:39;;;;;;;3.17;2.10;;;;;;;0.01;62.29;97581.72;5092621;28;20044;-62
2023/01/25 11:08:24;;;;;;;2.80;1.80;;;;;;;-0.04;62.27;97576.47;5092625;28;20500;-64
2023/01/25 11:10:58;;;;;;;2.05;1.75;;;;;;;-0.04;62.48;97574.78;5091889;28;20055;-62
2023/01/25 11:13:33;;;;;;;3.35;2.17;;;;;;;-0.03;63.18;97583.38;5093316;28;20473;-62
2023/01/25 11:16:30;;;;;;;2.45;2.08;;;;;;;-0.07;62.79;97576.41;5096321;28;20055;-62
2023/01/25 11:19:03;;;;;;;3.05;1.88;;;;;;;-0.08;63.40;97569.53;5096154;28;20080;-63
2023/01/25 11:21:34;;;;;;;3.58;2.22;;;;;;;-0.13;63.81;97574.56;5096127;28;20048;-62
2023/01/25 11:24:19;;;;;;;3.20;2.20;;;;;;;-0.09;62.96;97575.53;5096161;28;20048;-61
2023/01/25 11:26:51;;;;;;;5.28;2.28;;;;;;;-0.06;63.87;97570.44;5096131;28;20052;-62
2023/01/25 11:29:32;;;;;;;3.83;1.90;;;;;;;-0.06;62.98;97568.72;5095859;28;20056;-61
2023/01/25 11:32:03;;;;;;;2.00;1.70;;;;;;;-0.19;63.04;97562.47;5095827;28;20197;-62
2023/01/25 11:34:34;;;;;;;3.83;1.95;;;;;;;-0.22;63.27;97564.09;5095906;28;20125;-62
2023/01/25 11:37:20;;;;;;;4.63;2.40;;;;;;;-0.22;64.38;97558.94;5095745;28;20063;-61
2023/01/25 11:40:01;;;;;;;3.72;2.25;;;;;;;-0.21;64.32;97558.13;5095579;28;20048;-62
2023/01/25 11:42:45;;;;;;;3.03;2.28;;;;;;;-0.14;64.39;97554.84;5095647;28;20452;-64
2023/01/25 11:45:40;;;;;;;2.33;2.03;;;;;;;-0.11;63.69;97556.59;5095518;28;20516;-63
2023/01/25 11:48:31;;;;;;;2.83;2.10;;;;;;;-0.07;63.21;97545.53;5093331;28;20044;-61
2023/01/25 11:51:06;;;;;;;1.60;1.50;;;;;;;0.04;63.83;97544.06;5095412;28;20051;-62